createdAt,value
2019-02-21T00:01:40.612Z,22.60
2019-02-21T00:04:47.478Z,21.17
2019-02-21T00:07:54.090Z,19.70
2019-02-21T00:11:00.618Z,22.80
2019-02-21T00:14:06.890Z,19.57
2019-02-21T00:17:13.953Z,18.70
2019-02-21T00:20:20.504Z,17.27
2019-02-21T00:23:27.197Z,16.27
2019-02-21T00:26:34.924Z,14.50
2019-02-21T00:29:41.570Z,12.57
2019-02-21T00:32:48.339Z,13.10
2019-02-21T00:35:55.092Z,10.33
2019-02-21T00:39:02.177Z,10.50
2019-02-21T00:42:10.165Z,11.30
2019-02-21T00:45:16.508Z,10.50
2019-02-21T00:48:22.854Z,10.80
2019-02-21T00:51:29.836Z,11.70
2019-02-21T00:54:36.419Z,10.70
2019-02-21T00:57:42.945Z,9.97
2019-02-21T01:00:49.595Z,9.70
2019-02-21T01:03:56.199Z,11.47
2019-02-21T01:07:03.101Z,11.10
2019-02-21T01:10:09.626Z,11.93
2019-02-21T01:13:16.567Z,12.60
2019-02-21T01:16:22.867Z,11.00
2019-02-21T01:19:29.277Z,10.33
2019-02-21T01:22:35.692Z,10.80
2019-02-21T01:25:42.152Z,11.87
2019-02-21T01:28:48.925Z,10.80
2019-02-21T01:31:55.228Z,10.90
2019-02-21T01:35:01.640Z,11.33
2019-02-21T01:38:08.098Z,11.13
2019-02-21T01:41:14.861Z,10.23
2019-02-21T01:44:21.144Z,11.03
2019-02-21T01:47:28.158Z,11.40
2019-02-21T01:50:34.484Z,10.30
2019-02-21T01:53:41.024Z,9.67
2019-02-21T01:56:47.558Z,10.90
2019-02-21T01:59:54.167Z,10.07
2019-02-21T02:03:00.782Z,11.37
2019-02-21T02:06:07.242Z,11.13
2019-02-21T02:09:14.072Z,9.60
2019-02-21T02:12:20.982Z,9.33
2019-02-21T02:15:27.461Z,10.53
2019-02-21T02:18:34.142Z,11.00
2019-02-21T02:21:40.492Z,9.60
2019-02-21T02:24:46.812Z,9.83
2019-02-21T02:27:53.790Z,10.10
2019-02-21T02:31:00.969Z,9.90
2019-02-21T02:34:07.174Z,9.87
2019-02-21T02:37:13.534Z,9.90
2019-02-21T02:40:19.957Z,8.43
2019-02-21T02:43:26.533Z,8.30
2019-02-21T02:46:33.413Z,8.53
2019-02-21T02:49:40.494Z,9.70
2019-02-21T02:52:47.164Z,8.37
2019-02-21T02:55:53.784Z,8.23
2019-02-21T02:59:03.298Z,8.27
2019-02-21T03:02:09.975Z,8.77
2019-02-21T03:05:16.629Z,8.30
2019-02-21T03:08:23.303Z,8.93
2019-02-21T03:11:29.734Z,9.10
2019-02-21T03:14:37.828Z,8.87
2019-02-21T03:17:44.155Z,7.93
2019-02-21T03:20:52.447Z,8.77
2019-02-21T03:23:58.904Z,8.40
2019-02-21T03:27:05.461Z,8.67
2019-02-21T03:30:12.956Z,8.93
2019-02-21T03:33:19.798Z,8.20
2019-02-21T03:36:26.379Z,8.93
2019-02-21T03:39:33.177Z,8.30
2019-02-21T03:42:39.826Z,8.83
2019-02-21T03:45:46.265Z,9.23
2019-02-21T03:48:52.827Z,8.60
2019-02-21T03:51:59.264Z,9.07
2019-02-21T03:55:05.730Z,11.70
2019-02-21T03:58:12.554Z,12.17
2019-02-21T04:01:18.999Z,13.57
2019-02-21T04:04:25.636Z,13.73
2019-02-21T04:07:32.255Z,16.10
2019-02-21T04:10:39.122Z,16.33
2019-02-21T04:13:45.903Z,16.80
2019-02-21T04:16:52.568Z,15.73
2019-02-21T04:19:58.899Z,15.60
2019-02-21T04:23:05.058Z,15.77
2019-02-21T04:26:11.702Z,17.33
2019-02-21T04:29:18.288Z,15.13
2019-02-21T04:32:26.720Z,14.53
2019-02-21T04:35:33.413Z,15.57
2019-02-21T04:38:40.111Z,16.40
2019-02-21T04:41:46.851Z,15.43
2019-02-21T04:44:53.434Z,14.97
2019-02-21T04:48:00.061Z,16.30
2019-02-21T04:51:06.138Z,14.87
2019-02-21T04:54:12.710Z,15.83
2019-02-21T04:57:19.297Z,14.70
2019-02-21T05:00:25.629Z,15.93
2019-02-21T05:03:32.188Z,15.47
2019-02-21T05:06:39.059Z,15.63
2019-02-21T05:09:56.989Z,16.33
2019-02-21T05:12:54.944Z,14.20
2019-02-21T05:16:01.542Z,14.97
2019-02-21T05:19:08.418Z,13.40
2019-02-21T05:22:15.268Z,13.80
2019-02-21T05:25:22.097Z,14.03
2019-02-21T05:28:32.623Z,13.70
2019-02-21T05:31:56.888Z,13.60
2019-02-21T05:35:22.087Z,14.23
2019-02-21T05:38:50.587Z,13.67
2019-02-21T05:42:18.949Z,15.33
2019-02-21T05:45:38.108Z,14.00
2019-02-21T05:49:06.779Z,14.30
2019-02-21T05:52:32.796Z,14.57
2019-02-21T05:55:53.434Z,13.83
2019-02-21T05:59:16.800Z,14.73
2019-02-21T06:02:53.089Z,13.87
2019-02-21T06:06:04.233Z,14.10
2019-02-21T06:09:35.632Z,13.93
2019-02-21T06:13:00.255Z,12.50
2019-02-21T06:16:15.875Z,12.30
2019-02-21T06:20:00.533Z,11.70
2019-02-21T06:23:25.171Z,12.33
2019-02-21T06:27:01.012Z,13.33
2019-02-21T06:30:21.745Z,12.83
2019-02-21T06:33:28.647Z,11.80
2019-02-21T06:36:35.729Z,12.20
2019-02-21T06:39:42.266Z,11.60
2019-02-21T06:42:48.944Z,11.27
2019-02-21T06:45:57.827Z,12.37
2019-02-21T06:49:04.262Z,12.63
2019-02-21T06:52:10.599Z,11.20
2019-02-21T06:55:16.899Z,11.50
2019-02-21T06:58:23.697Z,13.03
2019-02-21T07:01:31.312Z,13.30
2019-02-21T07:04:38.070Z,12.80
2019-02-21T07:07:44.403Z,12.60
2019-02-21T07:10:51.133Z,10.80
2019-02-21T07:13:57.496Z,12.13
2019-02-21T07:17:03.991Z,13.37
2019-02-21T07:20:12.911Z,11.30
2019-02-21T07:23:18.819Z,13.33
2019-02-21T07:26:25.242Z,12.17
2019-02-21T07:29:32.018Z,11.50
2019-02-21T07:32:38.486Z,11.20
2019-02-21T07:35:44.887Z,11.43
2019-02-21T07:38:51.538Z,12.13
2019-02-21T07:41:58.035Z,11.20
2019-02-21T07:45:04.742Z,11.73
2019-02-21T07:48:11.919Z,12.37
2019-02-21T07:51:18.486Z,11.40
2019-02-21T07:54:24.837Z,11.77
2019-02-21T07:57:31.065Z,15.67
2019-02-21T08:00:37.712Z,16.83
2019-02-21T08:03:48.338Z,18.20
2019-02-21T08:06:55.671Z,16.10
2019-02-21T08:10:01.871Z,14.80
2019-02-21T08:13:08.752Z,16.10
2019-02-21T08:16:15.618Z,16.07
2019-02-21T08:19:22.301Z,14.70
2019-02-21T08:22:28.557Z,15.07
2019-02-21T08:25:35.128Z,13.70
2019-02-21T08:28:41.975Z,15.50
2019-02-21T08:31:48.871Z,14.93
2019-02-21T08:34:55.374Z,17.17
2019-02-21T08:38:02.420Z,15.00
2019-02-21T08:41:09.138Z,16.20
2019-02-21T08:44:16.102Z,15.77
2019-02-21T08:47:22.319Z,15.40
2019-02-21T08:50:29.520Z,14.70
2019-02-21T08:53:36.445Z,15.73
2019-02-21T08:56:42.928Z,14.63
2019-02-21T08:59:49.504Z,16.50
2019-02-21T09:02:55.930Z,14.70
2019-02-21T09:06:02.609Z,14.73
2019-02-21T09:09:09.586Z,14.67
2019-02-21T09:12:16.906Z,14.47
2019-02-21T09:15:23.375Z,15.43
2019-02-21T09:18:30.157Z,13.60
2019-02-21T09:21:37.322Z,13.80
2019-02-21T09:24:44.246Z,14.63
2019-02-21T09:27:50.841Z,15.10
2019-02-21T09:30:58.164Z,13.70
2019-02-21T09:34:04.678Z,14.13
2019-02-21T09:37:11.127Z,14.27
2019-02-21T09:40:17.530Z,13.63
2019-02-21T09:43:24.103Z,12.83
2019-02-21T09:46:31.467Z,14.53
2019-02-21T09:49:38.212Z,14.53
2019-02-21T09:52:45.181Z,14.63
2019-02-21T09:55:52.236Z,14.93
2019-02-21T09:58:59.460Z,14.23
2019-02-21T10:02:05.846Z,14.80
2019-02-21T10:05:12.260Z,14.77
2019-02-21T10:08:21.182Z,15.43
2019-02-21T10:11:28.329Z,15.10
2019-02-21T10:14:34.792Z,14.67
2019-02-21T10:17:41.366Z,15.87
2019-02-21T10:20:47.843Z,15.47
2019-02-21T10:23:56.581Z,15.60
2019-02-21T10:27:02.427Z,14.67
2019-02-21T10:30:13.271Z,15.13
2019-02-21T10:33:19.420Z,15.90
2019-02-21T10:36:26.510Z,16.20
2019-02-21T10:39:33.539Z,15.30
2019-02-21T10:42:40.423Z,15.97
2019-02-21T10:45:48.254Z,16.57
2019-02-21T10:48:55.075Z,16.07
2019-02-21T10:52:01.519Z,15.70
2019-02-21T10:55:09.925Z,16.50
2019-02-21T10:58:18.465Z,16.70
2019-02-21T11:01:25.572Z,16.53
2019-02-21T11:04:32.282Z,16.77
2019-02-21T11:07:38.934Z,16.60
2019-02-21T11:10:45.358Z,17.30
2019-02-21T11:13:52.887Z,17.03
2019-02-21T11:16:59.519Z,17.50
2019-02-21T11:20:06.986Z,15.40
2019-02-21T11:23:13.526Z,16.03
2019-02-21T11:26:20.284Z,17.67
2019-02-21T11:29:27.102Z,16.87
2019-02-21T11:32:33.731Z,16.00
2019-02-21T11:35:40.498Z,16.60
2019-02-21T11:38:47.316Z,16.67
2019-02-21T11:41:53.966Z,16.73
2019-02-21T11:45:00.624Z,19.07
2019-02-21T11:48:09.180Z,15.20
2019-02-21T11:51:16.332Z,16.07
2019-02-21T11:54:26.915Z,15.77
2019-02-21T11:57:31.536Z,13.83
2019-02-21T12:00:38.432Z,14.10
2019-02-21T12:03:45.272Z,13.60
2019-02-21T12:06:52.201Z,12.80
2019-02-21T12:09:58.863Z,13.20
2019-02-21T12:13:05.928Z,12.90
2019-02-21T12:16:12.444Z,14.00
2019-02-21T12:19:19.563Z,13.00
2019-02-21T12:22:26.387Z,12.67
2019-02-21T12:25:33.136Z,10.70
2019-02-21T12:28:39.782Z,10.33
2019-02-21T12:31:46.613Z,11.20
2019-02-21T12:34:53.697Z,11.00
2019-02-21T12:38:00.249Z,12.00
2019-02-21T12:41:07.153Z,11.93
2019-02-21T12:44:13.667Z,12.30
2019-02-21T12:47:20.378Z,11.53
2019-02-21T12:50:26.919Z,11.80
2019-02-21T12:53:35.182Z,12.60
2019-02-21T12:56:42.160Z,12.17
2019-02-21T12:59:48.931Z,12.90
2019-02-21T13:02:55.675Z,13.50
2019-02-21T13:06:02.683Z,14.23
2019-02-21T13:09:09.722Z,15.10
2019-02-21T13:12:18.955Z,14.50
2019-02-21T13:15:25.474Z,15.50
2019-02-21T13:18:31.855Z,14.03
2019-02-21T13:21:39.527Z,15.60
2019-02-21T13:24:46.682Z,14.30
2019-02-21T13:27:53.467Z,14.00
2019-02-21T13:31:00.700Z,14.77
2019-02-21T13:34:07.340Z,14.60
2019-02-21T13:37:14.221Z,14.57
2019-02-21T13:40:21.499Z,14.70
2019-02-21T13:43:29.135Z,14.40
2019-02-21T13:46:40.909Z,14.93
2019-02-21T13:49:46.253Z,14.70
2019-02-21T13:52:54.846Z,13.40
2019-02-21T13:56:01.719Z,13.63
2019-02-21T13:59:08.715Z,12.93
2019-02-21T14:02:15.735Z,13.13
2019-02-21T14:05:22.392Z,13.37
2019-02-21T14:08:30.631Z,15.37
2019-02-21T14:11:38.932Z,13.17
2019-02-21T14:14:45.340Z,14.53
2019-02-21T14:17:52.166Z,13.70
2019-02-21T14:20:59.463Z,13.77
2019-02-21T14:24:06.285Z,14.10
2019-02-21T14:27:13.455Z,14.93
2019-02-21T14:30:20.441Z,14.47
2019-02-21T14:33:28.626Z,14.30
2019-02-21T14:36:35.968Z,15.10
2019-02-21T14:39:42.378Z,16.03
2019-02-21T14:42:49.007Z,14.10
2019-02-21T14:45:59.766Z,14.57
2019-02-21T14:49:06.691Z,14.93
2019-02-21T14:52:14.302Z,14.10
2019-02-21T14:55:20.845Z,15.90
2019-02-21T14:58:27.955Z,14.73
2019-02-21T15:01:35.804Z,13.97
2019-02-21T15:04:42.969Z,15.60
2019-02-21T15:07:49.506Z,15.43
2019-02-21T15:10:59.735Z,16.70
2019-02-21T15:14:07.716Z,15.17
2019-02-21T15:17:15.198Z,16.40
2019-02-21T15:20:21.967Z,17.07
2019-02-21T15:23:28.873Z,15.87
2019-02-21T15:26:36.603Z,16.30
2019-02-21T15:29:43.488Z,16.70
2019-02-21T15:32:50.067Z,16.00
2019-02-21T15:36:00.658Z,16.43
2019-02-21T15:39:09.700Z,16.30
2019-02-21T15:42:16.304Z,17.33
2019-02-21T15:45:24.048Z,20.10
2019-02-21T15:48:31.962Z,20.77
2019-02-21T15:51:39.739Z,19.10
2019-02-21T15:54:46.963Z,17.90
2019-02-21T15:58:03.387Z,18.60
2019-02-21T16:01:24.940Z,17.97
2019-02-21T16:04:35.190Z,17.80
2019-02-21T16:07:41.076Z,18.80
2019-02-21T16:10:48.092Z,17.90
2019-02-21T16:14:03.182Z,18.30
2019-02-21T16:17:04.228Z,19.30
2019-02-21T16:20:12.422Z,18.20
2019-02-21T16:23:19.484Z,19.27
2019-02-21T16:26:26.073Z,19.03
2019-02-21T16:29:32.878Z,18.07
2019-02-21T16:32:39.355Z,17.73
2019-02-21T16:35:46.625Z,19.60
2019-02-21T16:38:53.863Z,18.57
2019-02-21T16:42:00.573Z,23.00
2019-02-21T16:45:08.619Z,27.00
2019-02-21T16:48:15.868Z,18.87
2019-02-21T16:51:23.577Z,17.93
2019-02-21T16:54:30.498Z,18.80
2019-02-21T16:57:37.681Z,16.90
2019-02-21T17:00:53.199Z,20.83
2019-02-21T17:03:53.172Z,16.83
2019-02-21T17:06:59.823Z,15.80
2019-02-21T17:10:07.021Z,16.10
2019-02-21T17:13:14.165Z,15.57
2019-02-21T17:16:20.868Z,16.37
2019-02-21T17:19:27.634Z,20.40
2019-02-21T17:22:34.613Z,19.10
2019-02-21T17:25:41.154Z,18.50
2019-02-21T17:28:48.736Z,17.27
2019-02-21T17:31:57.363Z,18.30
2019-02-21T17:35:04.872Z,18.97
2019-02-21T17:38:11.590Z,18.00
2019-02-21T17:41:20.747Z,20.60
2019-02-21T17:44:28.037Z,19.67
2019-02-21T17:47:35.964Z,16.70
2019-02-21T17:50:43.880Z,17.80
2019-02-21T17:53:52.648Z,20.00
2019-02-21T17:57:00.067Z,18.57
2019-02-21T18:00:09.615Z,20.97
2019-02-21T18:03:16.719Z,20.97
2019-02-21T18:06:23.696Z,19.90
2019-02-21T18:09:31.057Z,19.03
2019-02-21T18:12:37.964Z,19.40
2019-02-21T18:15:44.964Z,22.10
2019-02-21T18:18:51.535Z,21.57
2019-02-21T18:21:58.320Z,20.70
2019-02-21T18:25:05.215Z,20.97
2019-02-21T18:28:12.269Z,19.13
2019-02-21T18:31:23.021Z,21.10
2019-02-21T18:34:31.714Z,20.73
2019-02-21T18:37:46.986Z,22.40
2019-02-21T18:40:46.712Z,19.83
2019-02-21T18:43:54.244Z,18.80
2019-02-21T18:47:01.268Z,20.20
2019-02-21T18:50:08.698Z,18.87
2019-02-21T18:53:15.491Z,23.10
2019-02-21T18:56:22.962Z,22.90
2019-02-21T18:59:31.942Z,22.10
2019-02-21T19:02:39.096Z,23.93
2019-02-21T19:05:46.183Z,22.70
2019-02-21T19:08:53.300Z,25.27
2019-02-21T19:12:00.513Z,21.70
2019-02-21T19:15:07.932Z,21.80
2019-02-21T19:18:15.637Z,24.67
2019-02-21T19:21:22.503Z,25.70
2019-02-21T19:24:30.349Z,25.00
2019-02-21T19:27:37.727Z,26.07
2019-02-21T19:30:52.821Z,28.23
2019-02-21T19:34:01.063Z,29.30
2019-02-21T19:37:09.782Z,29.00
2019-02-21T19:40:16.424Z,26.17
2019-02-21T19:43:23.301Z,28.57
2019-02-21T19:46:31.951Z,30.20
2019-02-21T19:49:38.877Z,30.27
2019-02-21T19:52:45.852Z,31.50
2019-02-21T19:55:53.207Z,31.40
2019-02-21T19:58:59.905Z,30.70
2019-02-21T20:02:07.138Z,31.70
2019-02-21T20:05:14.063Z,32.73
2019-02-21T20:08:21.943Z,33.53
2019-02-21T20:11:30.336Z,35.43
2019-02-21T20:14:37.135Z,34.40
2019-02-21T20:17:43.873Z,34.80
2019-02-21T20:20:51.581Z,33.20
2019-02-21T20:23:58.027Z,35.63
2019-02-21T20:27:05.045Z,36.13
2019-02-21T20:30:14.227Z,33.60
2019-02-21T20:33:22.758Z,31.80
2019-02-21T20:36:30.726Z,32.30
2019-02-21T20:39:37.477Z,32.93
2019-02-21T20:42:44.299Z,31.10
2019-02-21T20:45:53.343Z,30.23
2019-02-21T20:49:00.314Z,32.03
2019-02-21T20:52:07.090Z,30.77
2019-02-21T20:55:13.868Z,31.00
2019-02-21T20:58:20.956Z,30.27
2019-02-21T21:01:28.957Z,30.60
2019-02-21T21:04:36.471Z,30.43
2019-02-21T21:07:43.207Z,31.67
2019-02-21T21:10:50.399Z,34.30
2019-02-21T21:13:57.902Z,32.10
2019-02-21T21:17:04.701Z,32.43
2019-02-21T21:20:16.682Z,31.80
2019-02-21T21:23:20.865Z,32.00
2019-02-21T21:26:27.478Z,32.87
2019-02-21T21:29:34.417Z,31.73
2019-02-21T21:32:41.421Z,31.53
2019-02-21T21:35:49.942Z,32.07
2019-02-21T21:38:59.546Z,31.67
2019-02-21T21:42:08.265Z,33.20
2019-02-21T21:45:16.282Z,30.57
2019-02-21T21:48:23.030Z,32.10
2019-02-21T21:51:30.682Z,32.40
2019-02-21T21:54:37.992Z,31.93
2019-02-21T21:57:45.418Z,30.27
2019-02-21T22:00:51.836Z,29.50
2019-02-21T22:03:58.877Z,31.37
2019-02-21T22:07:05.504Z,31.43
2019-02-21T22:10:12.952Z,29.93
2019-02-21T22:13:20.878Z,31.57
2019-02-21T22:16:30.118Z,29.97
2019-02-21T22:19:36.709Z,30.80
2019-02-21T22:22:43.244Z,31.57
2019-02-21T22:25:50.148Z,30.17
2019-02-21T22:28:57.101Z,29.27
2019-02-21T22:32:03.876Z,31.20
2019-02-21T22:35:10.572Z,29.77
2019-02-21T22:38:17.010Z,28.63
2019-02-21T22:41:23.835Z,28.80
2019-02-21T22:44:30.748Z,29.40
2019-02-21T22:47:38.006Z,28.07
2019-02-21T22:50:44.609Z,27.23
2019-02-21T22:53:51.875Z,29.03
2019-02-21T22:56:58.669Z,29.60
2019-02-21T23:00:25.544Z,28.87
2019-02-21T23:03:46.548Z,28.50
2019-02-21T23:07:26.262Z,28.07
2019-02-21T23:10:32.943Z,29.50
2019-02-21T23:13:40.158Z,30.53
2019-02-21T23:16:46.922Z,32.17
2019-02-21T23:19:54.212Z,31.00
2019-02-21T23:23:00.929Z,31.80
2019-02-21T23:26:07.519Z,32.80
2019-02-21T23:29:14.118Z,32.77
2019-02-21T23:32:20.814Z,32.33
2019-02-21T23:35:27.720Z,29.17
2019-02-21T23:38:34.774Z,31.50
2019-02-21T23:41:42.051Z,32.20
2019-02-21T23:44:48.950Z,31.57
2019-02-21T23:47:56.522Z,30.47
2019-02-21T23:51:03.590Z,31.23
2019-02-21T23:54:10.280Z,31.13
2019-02-21T23:57:17.968Z,30.27
